sensor_id;sensor_type;location;lat;lon;timestamp;temperature;humidity
3134;DHT22;1577;49.912;10.924;2024-02-26T00:02:16;1.80;99.90
3134;DHT22;1577;49.912;10.924;2024-02-26T00:04:42;1.80;99.90
3134;DHT22;1577;49.912;10.924;2024-02-26T00:07:07;1.70;99.90
3134;DHT22;1577;49.912;10.924;2024-02-26T00:09:33;1.70;99.90
3134;DHT22;1577;49.912;10.924;2024-02-26T00:12:02;1.70;99.90
3134;DHT22;1577;49.912;10.924;2024-02-26T00:14:32;1.70;99.90
3134;DHT22;1577;49.912;10.924;2024-02-26T00:16:57;1.70;99.90
3134;DHT22;1577;49.912;10.924;2024-02-26T00:19:23;1.60;99.90
3134;DHT22;1577;49.912;10.924;2024-02-26T00:21:49;1.60;99.90
3134;DHT22;1577;49.912;10.924;2024-02-26T00:24:14;1.60;99.90
3134;DHT22;1577;49.912;10.924;2024-02-26T00:26:40;1.60;99.90
3134;DHT22;1577;49.912;10.924;2024-02-26T00:29:05;1.60;99.90
3134;DHT22;1577;49.912;10.924;2024-02-26T00:31:31;1.60;99.90
3134;DHT22;1577;49.912;10.924;2024-02-26T00:33:57;1.60;99.90
3134;DHT22;1577;49.912;10.924;2024-02-26T00:36:23;1.60;99.90
3134;DHT22;1577;49.912;10.924;2024-02-26T00:38:48;1.60;99.90
3134;DHT22;1577;49.912;10.924;2024-02-26T00:41:20;1.60;99.90
3134;DHT22;1577;49.912;10.924;2024-02-26T00:43:46;1.60;99.90
3134;DHT22;1577;49.912;10.924;2024-02-26T00:46:12;1.60;99.90
3134;DHT22;1577;49.912;10.924;2024-02-26T00:48:37;1.50;99.90
3134;DHT22;1577;49.912;10.924;2024-02-26T00:51:04;1.60;99.90
3134;DHT22;1577;49.912;10.924;2024-02-26T00:53:33;1.50;99.90
3134;DHT22;1577;49.912;10.924;2024-02-26T00:55:59;1.60;99.90
3134;DHT22;1577;49.912;10.924;2024-02-26T00:58:25;1.60;99.90
3134;DHT22;1577;49.912;10.924;2024-02-26T01:00:51;1.60;99.90
3134;DHT22;1577;49.912;10.924;2024-02-26T01:03:17;1.50;99.90
3134;DHT22;1577;49.912;10.924;2024-02-26T01:05:43;1.60;99.90
3134;DHT22;1577;49.912;10.924;2024-02-26T01:08:09;1.70;99.90
3134;DHT22;1577;49.912;10.924;2024-02-26T01:10:34;1.70;99.90
3134;DHT22;1577;49.912;10.924;2024-02-26T01:13:00;1.70;99.90
3134;DHT22;1577;49.912;10.924;2024-02-26T01:15:26;1.70;99.90
3134;DHT22;1577;49.912;10.924;2024-02-26T01:17:52;1.70;99.90
3134;DHT22;1577;49.912;10.924;2024-02-26T01:20:18;1.70;99.90
3134;DHT22;1577;49.912;10.924;2024-02-26T01:22:43;1.70;99.90
3134;DHT22;1577;49.912;10.924;2024-02-26T01:25:09;1.80;99.90
3134;DHT22;1577;49.912;10.924;2024-02-26T01:27:36;1.80;99.90
3134;DHT22;1577;49.912;10.924;2024-02-26T01:30:03;1.80;99.90
3134;DHT22;1577;49.912;10.924;2024-02-26T01:32:29;1.70;99.90
3134;DHT22;1577;49.912;10.924;2024-02-26T01:34:55;1.70;99.90
3134;DHT22;1577;49.912;10.924;2024-02-26T01:37:21;1.70;99.90
3134;DHT22;1577;49.912;10.924;2024-02-26T01:39:46;1.70;99.90
3134;DHT22;1577;49.912;10.924;2024-02-26T01:42:12;1.70;99.90
3134;DHT22;1577;49.912;10.924;2024-02-26T01:44:38;1.70;99.90
3134;DHT22;1577;49.912;10.924;2024-02-26T01:47:04;1.70;99.90
3134;DHT22;1577;49.912;10.924;2024-02-26T01:49:30;1.60;99.90
3134;DHT22;1577;49.912;10.924;2024-02-26T01:51:57;1.60;99.90
3134;DHT22;1577;49.912;10.924;2024-02-26T01:54:23;1.60;99.90
3134;DHT22;1577;49.912;10.924;2024-02-26T01:56:49;1.60;99.90
3134;DHT22;1577;49.912;10.924;2024-02-26T01:59:16;1.70;99.90
3134;DHT22;1577;49.912;10.924;2024-02-26T02:01:44;1.70;99.90
3134;DHT22;1577;49.912;10.924;2024-02-26T02:04:14;1.80;99.90
3134;DHT22;1577;49.912;10.924;2024-02-26T02:06:41;1.80;99.90
3134;DHT22;1577;49.912;10.924;2024-02-26T02:09:08;1.70;99.90
3134;DHT22;1577;49.912;10.924;2024-02-26T02:11:34;1.70;99.90
3134;DHT22;1577;49.912;10.924;2024-02-26T02:13:59;1.70;99.90
3134;DHT22;1577;49.912;10.924;2024-02-26T02:16:25;1.70;99.90
3134;DHT22;1577;49.912;10.924;2024-02-26T02:18:50;1.70;99.90
3134;DHT22;1577;49.912;10.924;2024-02-26T02:21:16;1.80;99.90
3134;DHT22;1577;49.912;10.924;2024-02-26T02:23:42;2.00;99.90
3134;DHT22;1577;49.912;10.924;2024-02-26T02:26:12;2.00;99.90
3134;DHT22;1577;49.912;10.924;2024-02-26T02:28:39;2.00;99.90
3134;DHT22;1577;49.912;10.924;2024-02-26T02:31:05;1.90;99.90
3134;DHT22;1577;49.912;10.924;2024-02-26T02:33:31;1.80;99.90
3134;DHT22;1577;49.912;10.924;2024-02-26T02:35:57;1.80;99.90
3134;DHT22;1577;49.912;10.924;2024-02-26T02:38:24;1.80;99.90
3134;DHT22;1577;49.912;10.924;2024-02-26T02:40:51;1.80;99.90
3134;DHT22;1577;49.912;10.924;2024-02-26T02:43:17;1.90;99.90
3134;DHT22;1577;49.912;10.924;2024-02-26T02:45:43;1.80;99.90
3134;DHT22;1577;49.912;10.924;2024-02-26T02:48:08;1.80;99.90
3134;DHT22;1577;49.912;10.924;2024-02-26T02:50:34;1.80;99.90
3134;DHT22;1577;49.912;10.924;2024-02-26T02:52:59;1.80;99.90
3134;DHT22;1577;49.912;10.924;2024-02-26T02:55:25;1.90;99.90
3134;DHT22;1577;49.912;10.924;2024-02-26T02:57:51;1.90;99.90
3134;DHT22;1577;49.912;10.924;2024-02-26T03:00:16;2.00;99.90
3134;DHT22;1577;49.912;10.924;2024-02-26T03:02:42;2.00;99.90
3134;DHT22;1577;49.912;10.924;2024-02-26T03:05:10;2.10;99.90
3134;DHT22;1577;49.912;10.924;2024-02-26T03:07:36;2.10;99.90
3134;DHT22;1577;49.912;10.924;2024-02-26T03:10:01;2.10;99.90
3134;DHT22;1577;49.912;10.924;2024-02-26T03:12:27;2.20;99.90
3134;DHT22;1577;49.912;10.924;2024-02-26T03:14:53;2.30;99.90
3134;DHT22;1577;49.912;10.924;2024-02-26T03:17:20;2.30;99.90
3134;DHT22;1577;49.912;10.924;2024-02-26T03:19:46;2.30;99.90
3134;DHT22;1577;49.912;10.924;2024-02-26T03:22:12;2.30;99.90
3134;DHT22;1577;49.912;10.924;2024-02-26T03:24:38;2.20;99.90
3134;DHT22;1577;49.912;10.924;2024-02-26T03:27:04;2.20;99.90
3134;DHT22;1577;49.912;10.924;2024-02-26T03:29:37;2.20;99.90
3134;DHT22;1577;49.912;10.924;2024-02-26T03:32:04;2.30;99.90
3134;DHT22;1577;49.912;10.924;2024-02-26T03:34:29;2.40;99.90
3134;DHT22;1577;49.912;10.924;2024-02-26T03:36:56;2.50;99.90
3134;DHT22;1577;49.912;10.924;2024-02-26T03:39:21;2.50;99.90
3134;DHT22;1577;49.912;10.924;2024-02-26T03:41:48;2.60;99.90
3134;DHT22;1577;49.912;10.924;2024-02-26T03:44:13;2.60;99.90
3134;DHT22;1577;49.912;10.924;2024-02-26T03:46:39;2.60;99.90
3134;DHT22;1577;49.912;10.924;2024-02-26T03:49:04;2.50;99.90
3134;DHT22;1577;49.912;10.924;2024-02-26T03:51:30;2.50;99.90
3134;DHT22;1577;49.912;10.924;2024-02-26T03:54:00;2.50;99.90
3134;DHT22;1577;49.912;10.924;2024-02-26T03:56:26;2.50;99.90
3134;DHT22;1577;49.912;10.924;2024-02-26T03:58:53;2.60;99.90
3134;DHT22;1577;49.912;10.924;2024-02-26T04:01:18;2.60;99.90
3134;DHT22;1577;49.912;10.924;2024-02-26T04:03:44;2.60;99.90
3134;DHT22;1577;49.912;10.924;2024-02-26T04:06:11;2.50;99.90
3134;DHT22;1577;49.912;10.924;2024-02-26T04:08:37;2.60;99.90
3134;DHT22;1577;49.912;10.924;2024-02-26T04:11:03;2.60;99.90
3134;DHT22;1577;49.912;10.924;2024-02-26T04:13:33;2.70;99.90
3134;DHT22;1577;49.912;10.924;2024-02-26T04:15:59;2.60;99.90
3134;DHT22;1577;49.912;10.924;2024-02-26T04:18:27;2.70;99.90
3134;DHT22;1577;49.912;10.924;2024-02-26T04:20:52;2.60;99.90
3134;DHT22;1577;49.912;10.924;2024-02-26T04:23:18;2.60;99.90
3134;DHT22;1577;49.912;10.924;2024-02-26T04:25:47;2.60;99.90
3134;DHT22;1577;49.912;10.924;2024-02-26T04:28:13;2.60;99.90
3134;DHT22;1577;49.912;10.924;2024-02-26T04:30:39;2.60;99.90
3134;DHT22;1577;49.912;10.924;2024-02-26T04:33:04;2.50;99.90
3134;DHT22;1577;49.912;10.924;2024-02-26T04:35:30;2.40;99.90
3134;DHT22;1577;49.912;10.924;2024-02-26T04:37:56;2.40;99.90
3134;DHT22;1577;49.912;10.924;2024-02-26T04:40:22;2.40;99.90
3134;DHT22;1577;49.912;10.924;2024-02-26T04:42:48;2.40;99.90
3134;DHT22;1577;49.912;10.924;2024-02-26T04:45:13;2.40;99.90
3134;DHT22;1577;49.912;10.924;2024-02-26T04:47:39;2.30;99.90
3134;DHT22;1577;49.912;10.924;2024-02-26T04:50:05;2.30;99.90
3134;DHT22;1577;49.912;10.924;2024-02-26T04:52:31;2.40;99.90
3134;DHT22;1577;49.912;10.924;2024-02-26T04:54:56;2.50;99.90
3134;DHT22;1577;49.912;10.924;2024-02-26T04:57:22;2.60;99.90
3134;DHT22;1577;49.912;10.924;2024-02-26T05:00:07;2.60;99.90
3134;DHT22;1577;49.912;10.924;2024-02-26T05:02:33;2.50;99.90
3134;DHT22;1577;49.912;10.924;2024-02-26T05:05:04;2.50;99.90
3134;DHT22;1577;49.912;10.924;2024-02-26T05:07:30;2.70;99.90
3134;DHT22;1577;49.912;10.924;2024-02-26T05:09:55;2.60;99.90
3134;DHT22;1577;49.912;10.924;2024-02-26T05:12:21;2.60;99.90
3134;DHT22;1577;49.912;10.924;2024-02-26T05:14:46;2.60;99.90
3134;DHT22;1577;49.912;10.924;2024-02-26T05:17:12;2.70;99.90
3134;DHT22;1577;49.912;10.924;2024-02-26T05:19:38;2.70;99.90
3134;DHT22;1577;49.912;10.924;2024-02-26T05:22:03;2.80;99.90
3134;DHT22;1577;49.912;10.924;2024-02-26T05:24:29;2.90;99.90
3134;DHT22;1577;49.912;10.924;2024-02-26T05:26:54;2.90;99.90
3134;DHT22;1577;49.912;10.924;2024-02-26T05:29:20;2.90;99.90
3134;DHT22;1577;49.912;10.924;2024-02-26T05:31:46;2.80;99.90
3134;DHT22;1577;49.912;10.924;2024-02-26T05:34:12;2.90;99.90
3134;DHT22;1577;49.912;10.924;2024-02-26T05:36:37;2.80;99.90
3134;DHT22;1577;49.912;10.924;2024-02-26T05:39:04;2.90;99.90
3134;DHT22;1577;49.912;10.924;2024-02-26T05:41:29;3.00;99.90
3134;DHT22;1577;49.912;10.924;2024-02-26T05:43:55;3.10;99.90
3134;DHT22;1577;49.912;10.924;2024-02-26T05:46:21;3.20;99.90
3134;DHT22;1577;49.912;10.924;2024-02-26T05:48:50;3.20;99.90
3134;DHT22;1577;49.912;10.924;2024-02-26T05:51:15;3.10;99.90
3134;DHT22;1577;49.912;10.924;2024-02-26T05:53:41;3.10;99.90
3134;DHT22;1577;49.912;10.924;2024-02-26T05:56:07;3.00;99.90
3134;DHT22;1577;49.912;10.924;2024-02-26T05:58:33;3.10;99.90
3134;DHT22;1577;49.912;10.924;2024-02-26T06:00:58;3.10;99.90
3134;DHT22;1577;49.912;10.924;2024-02-26T06:03:25;3.10;99.90
3134;DHT22;1577;49.912;10.924;2024-02-26T06:05:51;3.20;99.90
3134;DHT22;1577;49.912;10.924;2024-02-26T06:08:16;3.30;99.90
3134;DHT22;1577;49.912;10.924;2024-02-26T06:10:42;3.40;99.90
3134;DHT22;1577;49.912;10.924;2024-02-26T06:13:08;3.30;99.90
3134;DHT22;1577;49.912;10.924;2024-02-26T06:15:33;3.30;99.90
3134;DHT22;1577;49.912;10.924;2024-02-26T06:17:59;3.50;99.90
3134;DHT22;1577;49.912;10.924;2024-02-26T06:20:24;3.50;99.90
3134;DHT22;1577;49.912;10.924;2024-02-26T06:22:51;3.40;99.90
3134;DHT22;1577;49.912;10.924;2024-02-26T06:25:16;3.40;99.90
3134;DHT22;1577;49.912;10.924;2024-02-26T06:27:42;3.50;99.90
3134;DHT22;1577;49.912;10.924;2024-02-26T06:30:08;3.50;99.90
3134;DHT22;1577;49.912;10.924;2024-02-26T06:32:36;3.50;99.90
3134;DHT22;1577;49.912;10.924;2024-02-26T06:35:02;3.50;99.90
3134;DHT22;1577;49.912;10.924;2024-02-26T06:37:32;3.50;99.90
3134;DHT22;1577;49.912;10.924;2024-02-26T06:39:59;3.50;99.90
3134;DHT22;1577;49.912;10.924;2024-02-26T06:42:25;3.50;99.90
3134;DHT22;1577;49.912;10.924;2024-02-26T06:44:50;3.60;99.90
3134;DHT22;1577;49.912;10.924;2024-02-26T06:47:16;3.70;99.90
3134;DHT22;1577;49.912;10.924;2024-02-26T06:49:41;3.70;99.90
3134;DHT22;1577;49.912;10.924;2024-02-26T06:52:07;3.90;99.90
3134;DHT22;1577;49.912;10.924;2024-02-26T06:54:33;3.80;99.90
3134;DHT22;1577;49.912;10.924;2024-02-26T06:56:58;3.80;99.90
3134;DHT22;1577;49.912;10.924;2024-02-26T06:59:24;3.90;99.90
3134;DHT22;1577;49.912;10.924;2024-02-26T07:01:50;4.00;99.90
3134;DHT22;1577;49.912;10.924;2024-02-26T07:04:15;4.10;99.90
3134;DHT22;1577;49.912;10.924;2024-02-26T07:06:41;4.10;99.90
3134;DHT22;1577;49.912;10.924;2024-02-26T07:09:08;4.10;99.90
3134;DHT22;1577;49.912;10.924;2024-02-26T07:11:33;4.30;99.90
3134;DHT22;1577;49.912;10.924;2024-02-26T07:13:59;4.20;99.90
3134;DHT22;1577;49.912;10.924;2024-02-26T07:16:26;4.30;99.90
3134;DHT22;1577;49.912;10.924;2024-02-26T07:18:52;4.40;99.90
3134;DHT22;1577;49.912;10.924;2024-02-26T07:21:18;4.50;99.90
3134;DHT22;1577;49.912;10.924;2024-02-26T07:23:43;4.50;99.90
3134;DHT22;1577;49.912;10.924;2024-02-26T07:26:09;4.60;99.90
3134;DHT22;1577;49.912;10.924;2024-02-26T07:28:37;4.50;99.90
3134;DHT22;1577;49.912;10.924;2024-02-26T07:31:02;4.60;99.90
3134;DHT22;1577;49.912;10.924;2024-02-26T07:33:28;4.70;99.90
3134;DHT22;1577;49.912;10.924;2024-02-26T07:35:54;4.70;99.90
3134;DHT22;1577;49.912;10.924;2024-02-26T07:38:19;4.70;99.90
3134;DHT22;1577;49.912;10.924;2024-02-26T07:40:45;4.70;99.90
3134;DHT22;1577;49.912;10.924;2024-02-26T07:43:11;4.60;99.90
3134;DHT22;1577;49.912;10.924;2024-02-26T07:45:36;4.70;99.90
3134;DHT22;1577;49.912;10.924;2024-02-26T07:48:02;4.80;99.90
3134;DHT22;1577;49.912;10.924;2024-02-26T07:50:28;4.90;99.90
3134;DHT22;1577;49.912;10.924;2024-02-26T07:52:53;5.10;99.90
3134;DHT22;1577;49.912;10.924;2024-02-26T07:55:19;5.10;99.90
3134;DHT22;1577;49.912;10.924;2024-02-26T07:57:45;5.30;99.90
3134;DHT22;1577;49.912;10.924;2024-02-26T08:00:11;5.30;99.90
3134;DHT22;1577;49.912;10.924;2024-02-26T08:02:37;5.30;99.90
3134;DHT22;1577;49.912;10.924;2024-02-26T08:05:03;5.30;99.90
3134;DHT22;1577;49.912;10.924;2024-02-26T08:07:28;5.40;99.90
3134;DHT22;1577;49.912;10.924;2024-02-26T08:09:54;5.40;99.90
3134;DHT22;1577;49.912;10.924;2024-02-26T08:12:19;5.60;99.90
3134;DHT22;1577;49.912;10.924;2024-02-26T08:14:45;5.70;99.90
3134;DHT22;1577;49.912;10.924;2024-02-26T08:17:11;5.90;99.90
3134;DHT22;1577;49.912;10.924;2024-02-26T08:19:36;6.10;99.90
3134;DHT22;1577;49.912;10.924;2024-02-26T08:22:02;6.20;99.90
3134;DHT22;1577;49.912;10.924;2024-02-26T08:24:28;6.30;99.90
3134;DHT22;1577;49.912;10.924;2024-02-26T08:26:54;6.50;99.90
3134;DHT22;1577;49.912;10.924;2024-02-26T08:29:19;6.70;99.90
3134;DHT22;1577;49.912;10.924;2024-02-26T08:31:45;6.90;99.90
3134;DHT22;1577;49.912;10.924;2024-02-26T08:34:11;7.10;99.90
3134;DHT22;1577;49.912;10.924;2024-02-26T08:36:37;7.10;99.90
3134;DHT22;1577;49.912;10.924;2024-02-26T08:39:03;7.30;99.90
3134;DHT22;1577;49.912;10.924;2024-02-26T08:41:29;7.40;99.90
3134;DHT22;1577;49.912;10.924;2024-02-26T08:43:54;7.40;99.90
3134;DHT22;1577;49.912;10.924;2024-02-26T08:46:20;7.50;99.90
3134;DHT22;1577;49.912;10.924;2024-02-26T08:48:46;7.60;99.90
3134;DHT22;1577;49.912;10.924;2024-02-26T08:51:12;7.60;99.90
3134;DHT22;1577;49.912;10.924;2024-02-26T08:53:38;7.80;99.90
3134;DHT22;1577;49.912;10.924;2024-02-26T08:56:04;7.90;99.90
3134;DHT22;1577;49.912;10.924;2024-02-26T08:58:30;7.90;99.90
3134;DHT22;1577;49.912;10.924;2024-02-26T09:00:56;8.00;99.90
3134;DHT22;1577;49.912;10.924;2024-02-26T09:03:22;8.10;99.90
3134;DHT22;1577;49.912;10.924;2024-02-26T09:05:48;8.30;99.90
3134;DHT22;1577;49.912;10.924;2024-02-26T09:08:13;8.50;99.90
3134;DHT22;1577;49.912;10.924;2024-02-26T09:10:39;8.70;99.90
3134;DHT22;1577;49.912;10.924;2024-02-26T09:13:05;8.80;99.90
3134;DHT22;1577;49.912;10.924;2024-02-26T09:15:31;8.90;99.90
3134;DHT22;1577;49.912;10.924;2024-02-26T09:17:56;9.10;99.90
3134;DHT22;1577;49.912;10.924;2024-02-26T09:20:22;9.00;99.90
3134;DHT22;1577;49.912;10.924;2024-02-26T09:22:49;9.20;99.90
3134;DHT22;1577;49.912;10.924;2024-02-26T09:25:14;9.40;99.90
3134;DHT22;1577;49.912;10.924;2024-02-26T09:27:43;9.70;99.90
3134;DHT22;1577;49.912;10.924;2024-02-26T09:30:13;9.90;99.90
3134;DHT22;1577;49.912;10.924;2024-02-26T09:32:39;9.90;99.90
3134;DHT22;1577;49.912;10.924;2024-02-26T09:35:08;10.00;99.90
3134;DHT22;1577;49.912;10.924;2024-02-26T09:37:34;9.90;99.90
3134;DHT22;1577;49.912;10.924;2024-02-26T09:39:59;10.00;99.90
3134;DHT22;1577;49.912;10.924;2024-02-26T09:42:26;10.00;99.90
3134;DHT22;1577;49.912;10.924;2024-02-26T09:44:54;10.00;99.90
3134;DHT22;1577;49.912;10.924;2024-02-26T09:47:26;10.10;99.90
3134;DHT22;1577;49.912;10.924;2024-02-26T09:49:53;10.30;99.90
3134;DHT22;1577;49.912;10.924;2024-02-26T09:52:21;10.40;99.90
3134;DHT22;1577;49.912;10.924;2024-02-26T09:54:49;10.30;99.90
3134;DHT22;1577;49.912;10.924;2024-02-26T09:57:15;10.50;99.90
3134;DHT22;1577;49.912;10.924;2024-02-26T09:59:43;10.50;99.90
3134;DHT22;1577;49.912;10.924;2024-02-26T10:02:12;10.60;99.90
3134;DHT22;1577;49.912;10.924;2024-02-26T10:04:41;10.80;99.90
3134;DHT22;1577;49.912;10.924;2024-02-26T10:07:11;10.90;99.90
3134;DHT22;1577;49.912;10.924;2024-02-26T10:09:37;11.00;99.90
3134;DHT22;1577;49.912;10.924;2024-02-26T10:12:06;11.20;99.90
3134;DHT22;1577;49.912;10.924;2024-02-26T10:14:32;11.30;99.90
3134;DHT22;1577;49.912;10.924;2024-02-26T10:16:59;11.30;99.90
3134;DHT22;1577;49.912;10.924;2024-02-26T10:19:28;11.30;99.90
3134;DHT22;1577;49.912;10.924;2024-02-26T10:21:58;11.30;99.90
3134;DHT22;1577;49.912;10.924;2024-02-26T10:24:28;11.20;99.90
3134;DHT22;1577;49.912;10.924;2024-02-26T10:26:57;11.40;99.90
3134;DHT22;1577;49.912;10.924;2024-02-26T10:29:24;11.60;99.90
3134;DHT22;1577;49.912;10.924;2024-02-26T10:31:51;11.70;99.90
3134;DHT22;1577;49.912;10.924;2024-02-26T10:34:18;11.80;99.90
3134;DHT22;1577;49.912;10.924;2024-02-26T10:36:43;12.00;99.90
3134;DHT22;1577;49.912;10.924;2024-02-26T10:39:12;12.00;99.90
3134;DHT22;1577;49.912;10.924;2024-02-26T10:41:37;12.10;99.90
3134;DHT22;1577;49.912;10.924;2024-02-26T10:44:04;12.30;99.90
3134;DHT22;1577;49.912;10.924;2024-02-26T10:46:29;12.40;99.90
3134;DHT22;1577;49.912;10.924;2024-02-26T10:48:56;12.50;99.90
3134;DHT22;1577;49.912;10.924;2024-02-26T10:51:29;12.60;99.90
3134;DHT22;1577;49.912;10.924;2024-02-26T10:53:58;12.70;99.90
3134;DHT22;1577;49.912;10.924;2024-02-26T10:56:26;12.60;99.90
3134;DHT22;1577;49.912;10.924;2024-02-26T10:58:55;12.70;99.90
3134;DHT22;1577;49.912;10.924;2024-02-26T11:01:22;12.80;99.90
3134;DHT22;1577;49.912;10.924;2024-02-26T11:03:53;12.70;99.90
3134;DHT22;1577;49.912;10.924;2024-02-26T11:06:20;12.40;99.90
3134;DHT22;1577;49.912;10.924;2024-02-26T11:08:50;12.20;99.90
3134;DHT22;1577;49.912;10.924;2024-02-26T11:11:19;12.10;99.90
3134;DHT22;1577;49.912;10.924;2024-02-26T11:13:47;12.00;99.90
3134;DHT22;1577;49.912;10.924;2024-02-26T11:16:20;12.00;99.90
3134;DHT22;1577;49.912;10.924;2024-02-26T11:18:47;12.00;99.90
3134;DHT22;1577;49.912;10.924;2024-02-26T11:21:16;12.00;99.90
3134;DHT22;1577;49.912;10.924;2024-02-26T11:23:42;12.00;99.90
3134;DHT22;1577;49.912;10.924;2024-02-26T11:26:10;12.00;99.90
3134;DHT22;1577;49.912;10.924;2024-02-26T11:28:37;12.10;99.90
3134;DHT22;1577;49.912;10.924;2024-02-26T11:31:04;12.10;99.90
3134;DHT22;1577;49.912;10.924;2024-02-26T11:33:30;12.10;99.90
3134;DHT22;1577;49.912;10.924;2024-02-26T11:35:56;12.20;99.90
3134;DHT22;1577;49.912;10.924;2024-02-26T11:38:25;12.30;99.90
3134;DHT22;1577;49.912;10.924;2024-02-26T11:40:52;12.40;99.90
3134;DHT22;1577;49.912;10.924;2024-02-26T11:43:23;12.40;99.90
3134;DHT22;1577;49.912;10.924;2024-02-26T11:45:49;12.40;99.90
3134;DHT22;1577;49.912;10.924;2024-02-26T11:48:21;12.30;99.90
3134;DHT22;1577;49.912;10.924;2024-02-26T11:50:54;12.20;99.90
3134;DHT22;1577;49.912;10.924;2024-02-26T11:53:27;12.20;99.90
3134;DHT22;1577;49.912;10.924;2024-02-26T11:58:39;12.10;99.90
3134;DHT22;1577;49.912;10.924;2024-02-26T12:01:06;12.30;99.90
3134;DHT22;1577;49.912;10.924;2024-02-26T12:03:31;12.50;99.90
3134;DHT22;1577;49.912;10.924;2024-02-26T12:05:57;12.60;99.90
3134;DHT22;1577;49.912;10.924;2024-02-26T12:08:23;12.70;99.90
3134;DHT22;1577;49.912;10.924;2024-02-26T12:10:50;13.10;99.80
3134;DHT22;1577;49.912;10.924;2024-02-26T12:13:29;13.20;99.30
3134;DHT22;1577;49.912;10.924;2024-02-26T12:15:57;13.30;99.20
3134;DHT22;1577;49.912;10.924;2024-02-26T12:18:23;13.30;99.40
3134;DHT22;1577;49.912;10.924;2024-02-26T12:21:04;13.40;99.50
3134;DHT22;1577;49.912;10.924;2024-02-26T12:23:30;13.60;99.60
3134;DHT22;1577;49.912;10.924;2024-02-26T12:26:00;13.80;99.40
3134;DHT22;1577;49.912;10.924;2024-02-26T12:28:29;13.80;99.30
3134;DHT22;1577;49.912;10.924;2024-02-26T12:30:55;13.90;99.50
3134;DHT22;1577;49.912;10.924;2024-02-26T12:33:21;14.10;98.90
3134;DHT22;1577;49.912;10.924;2024-02-26T12:35:46;14.30;98.90
3134;DHT22;1577;49.912;10.924;2024-02-26T12:38:14;14.30;98.60
3134;DHT22;1577;49.912;10.924;2024-02-26T12:40:40;14.40;98.50
3134;DHT22;1577;49.912;10.924;2024-02-26T12:43:07;14.50;98.20
3134;DHT22;1577;49.912;10.924;2024-02-26T12:45:40;14.50;98.30
3134;DHT22;1577;49.912;10.924;2024-02-26T12:48:06;14.50;97.60
3134;DHT22;1577;49.912;10.924;2024-02-26T12:50:32;14.30;97.10
3134;DHT22;1577;49.912;10.924;2024-02-26T12:52:58;14.30;97.60
3134;DHT22;1577;49.912;10.924;2024-02-26T12:55:24;14.30;97.60
3134;DHT22;1577;49.912;10.924;2024-02-26T12:57:51;14.30;97.40
3134;DHT22;1577;49.912;10.924;2024-02-26T13:00:23;14.30;97.10
3134;DHT22;1577;49.912;10.924;2024-02-26T13:02:50;14.10;97.30
3134;DHT22;1577;49.912;10.924;2024-02-26T13:05:18;14.00;97.30
3134;DHT22;1577;49.912;10.924;2024-02-26T13:07:45;13.80;97.70
3134;DHT22;1577;49.912;10.924;2024-02-26T13:10:13;13.70;98.10
3134;DHT22;1577;49.912;10.924;2024-02-26T13:12:47;13.90;97.40
3134;DHT22;1577;49.912;10.924;2024-02-26T13:15:18;14.10;97.10
3134;DHT22;1577;49.912;10.924;2024-02-26T13:17:47;14.00;96.90
3134;DHT22;1577;49.912;10.924;2024-02-26T13:20:24;14.00;97.10
3134;DHT22;1577;49.912;10.924;2024-02-26T13:22:50;14.00;96.90
3134;DHT22;1577;49.912;10.924;2024-02-26T13:25:20;14.10;96.40
3134;DHT22;1577;49.912;10.924;2024-02-26T13:27:46;14.00;96.50
3134;DHT22;1577;49.912;10.924;2024-02-26T13:30:12;14.00;95.70
3134;DHT22;1577;49.912;10.924;2024-02-26T13:32:39;14.10;96.10
3134;DHT22;1577;49.912;10.924;2024-02-26T13:35:09;14.10;96.20
3134;DHT22;1577;49.912;10.924;2024-02-26T13:37:35;14.10;96.20
3134;DHT22;1577;49.912;10.924;2024-02-26T13:40:07;14.10;95.80
3134;DHT22;1577;49.912;10.924;2024-02-26T13:42:34;14.10;95.80
3134;DHT22;1577;49.912;10.924;2024-02-26T13:45:00;14.00;95.80
3134;DHT22;1577;49.912;10.924;2024-02-26T13:47:25;14.10;95.50
3134;DHT22;1577;49.912;10.924;2024-02-26T13:49:51;14.20;95.50
3134;DHT22;1577;49.912;10.924;2024-02-26T13:52:17;14.20;95.20
3134;DHT22;1577;49.912;10.924;2024-02-26T13:54:42;14.20;95.40
3134;DHT22;1577;49.912;10.924;2024-02-26T13:57:08;14.10;95.50
3134;DHT22;1577;49.912;10.924;2024-02-26T13:59:34;14.00;95.10
3134;DHT22;1577;49.912;10.924;2024-02-26T14:02:00;14.00;95.40
3134;DHT22;1577;49.912;10.924;2024-02-26T14:04:25;14.00;95.90
3134;DHT22;1577;49.912;10.924;2024-02-26T14:06:51;14.00;95.70
3134;DHT22;1577;49.912;10.924;2024-02-26T14:09:17;14.00;95.20
3134;DHT22;1577;49.912;10.924;2024-02-26T14:11:45;14.00;95.40
3134;DHT22;1577;49.912;10.924;2024-02-26T14:14:10;13.90;94.70
3134;DHT22;1577;49.912;10.924;2024-02-26T14:16:36;13.90;95.20
3134;DHT22;1577;49.912;10.924;2024-02-26T14:19:02;13.90;95.20
3134;DHT22;1577;49.912;10.924;2024-02-26T14:21:28;13.90;95.10
3134;DHT22;1577;49.912;10.924;2024-02-26T14:23:55;13.90;95.10
3134;DHT22;1577;49.912;10.924;2024-02-26T14:26:24;13.80;95.00
3134;DHT22;1577;49.912;10.924;2024-02-26T14:28:50;13.80;95.60
3134;DHT22;1577;49.912;10.924;2024-02-26T14:31:19;13.70;95.90
3134;DHT22;1577;49.912;10.924;2024-02-26T14:33:44;13.50;96.20
3134;DHT22;1577;49.912;10.924;2024-02-26T14:36:10;13.40;96.30
3134;DHT22;1577;49.912;10.924;2024-02-26T14:38:37;13.20;96.70
3134;DHT22;1577;49.912;10.924;2024-02-26T14:41:03;13.20;96.90
3134;DHT22;1577;49.912;10.924;2024-02-26T14:43:29;13.20;96.50
3134;DHT22;1577;49.912;10.924;2024-02-26T14:45:57;13.00;96.70
3134;DHT22;1577;49.912;10.924;2024-02-26T14:48:23;13.00;96.70
3134;DHT22;1577;49.912;10.924;2024-02-26T14:50:49;13.00;96.80
3134;DHT22;1577;49.912;10.924;2024-02-26T14:53:16;13.00;97.40
3134;DHT22;1577;49.912;10.924;2024-02-26T14:55:42;12.90;97.30
3134;DHT22;1577;49.912;10.924;2024-02-26T14:58:08;12.90;97.50
3134;DHT22;1577;49.912;10.924;2024-02-26T15:00:36;12.90;97.80
3134;DHT22;1577;49.912;10.924;2024-02-26T15:03:01;12.80;97.90
3134;DHT22;1577;49.912;10.924;2024-02-26T15:05:27;12.80;97.90
3134;DHT22;1577;49.912;10.924;2024-02-26T15:07:53;12.80;97.50
3134;DHT22;1577;49.912;10.924;2024-02-26T15:10:18;12.70;97.30
3134;DHT22;1577;49.912;10.924;2024-02-26T15:12:44;12.70;97.00
3134;DHT22;1577;49.912;10.924;2024-02-26T15:15:10;12.60;97.20
3134;DHT22;1577;49.912;10.924;2024-02-26T15:17:35;12.40;96.70
3134;DHT22;1577;49.912;10.924;2024-02-26T15:20:02;12.50;97.00
3134;DHT22;1577;49.912;10.924;2024-02-26T15:22:27;12.40;97.50
3134;DHT22;1577;49.912;10.924;2024-02-26T15:24:53;12.40;98.00
3134;DHT22;1577;49.912;10.924;2024-02-26T15:27:19;12.40;98.60
3134;DHT22;1577;49.912;10.924;2024-02-26T15:29:44;12.30;98.70
3134;DHT22;1577;49.912;10.924;2024-02-26T15:32:10;12.30;99.10
3134;DHT22;1577;49.912;10.924;2024-02-26T15:34:36;12.30;99.00
3134;DHT22;1577;49.912;10.924;2024-02-26T15:37:02;12.20;99.00
3134;DHT22;1577;49.912;10.924;2024-02-26T15:39:28;12.10;99.10
3134;DHT22;1577;49.912;10.924;2024-02-26T15:41:54;12.10;99.20
3134;DHT22;1577;49.912;10.924;2024-02-26T15:44:19;12.00;99.30
3134;DHT22;1577;49.912;10.924;2024-02-26T15:46:45;12.00;99.40
3134;DHT22;1577;49.912;10.924;2024-02-26T15:49:11;11.90;99.50
3134;DHT22;1577;49.912;10.924;2024-02-26T15:51:36;11.90;99.60
3134;DHT22;1577;49.912;10.924;2024-02-26T15:54:02;11.90;99.60